Time;durP1;ratioP1;P1;durP2;ratioP2;P2;SDS_P1;SDS_P2;PMS_P1;PMS_P2;Temp;Humidity;BMP_temperature;BMP_pressure;BME280_temperature;BME280_humidity;BME280_pressure;Samples;Min_cycle;Max_cycle;Signal;HPM_P1;HPM_P2
2022/11/19 00:01:13;;;;;;;11.05;1.08;;;;;;;15.22;100.00;99246.88;7396312;19;20010;-59
2022/11/19 00:03:40;;;;;;;2.83;0.68;;;;;;;15.99;100.00;99244.63;7394457;19;20022;-59
2022/11/19 00:06:17;;;;;;;0.10;0.10;;;;;;;15.34;100.00;99245.50;7394439;19;20042;-59
2022/11/19 00:08:44;;;;;;;2.33;0.40;;;;;;;11.85;100.00;99245.16;7398917;19;20471;-59
2022/11/19 00:11:13;;;;;;;20.92;0.90;;;;;;;12.33;100.00;99251.50;7395744;19;20094;-59
2022/11/19 00:13:41;;;;;;;0.57;0.57;;;;;;;17.07;100.00;99247.81;7393401;19;20022;-59
2022/11/19 00:16:13;;;;;;;0.22;0.20;;;;;;;13.27;100.00;99254.50;7393902;19;20114;-59
2022/11/19 00:18:40;;;;;;;1.35;0.55;;;;;;;10.91;100.00;99258.38;7394291;19;20018;-58
2022/11/19 00:21:12;;;;;;;0.63;0.63;;;;;;;8.83;100.00;99260.09;7394593;19;20017;-58
2022/11/19 00:23:39;;;;;;;0.30;0.28;;;;;;;9.64;100.00;99263.13;7394379;19;20015;-59
2022/11/19 00:26:13;;;;;;;0.95;0.10;;;;;;;9.90;100.00;99266.78;7392502;19;20361;-58
2022/11/19 00:28:40;;;;;;;0.30;0.30;;;;;;;13.61;100.00;99256.00;7394286;19;20080;-58
2022/11/19 00:31:09;;;;;;;5.38;0.75;;;;;;;16.78;100.00;99257.22;7395168;19;20002;-58
2022/11/19 00:33:37;;;;;;;0.40;0.10;;;;;;;17.56;100.00;99260.38;7392099;19;20040;-59
2022/11/19 00:36:06;;;;;;;9.60;0.77;;;;;;;16.93;100.00;99254.69;7393693;19;20053;-58
2022/11/19 00:38:33;;;;;;;4.88;0.70;;;;;;;18.32;100.00;99253.06;7393822;19;20524;-58
2022/11/19 00:40:59;;;;;;;0.80;0.30;;;;;;;18.32;100.00;99253.06;7394430;19;20343;-58
2022/11/19 00:46:11;;;;;;;0.25;0.25;;;;;;;18.73;100.00;99264.50;7392266;19;20017;-58
2022/11/19 00:48:38;;;;;;;0.40;0.17;;;;;;;18.30;100.00;99275.38;7393499;19;20014;-58
2022/11/19 00:51:05;;;;;;;0.47;0.47;;;;;;;18.47;100.00;99273.00;7397300;19;20074;-58
2022/11/19 00:53:32;;;;;;;0.10;0.10;;;;;;;17.46;100.00;99278.91;7392094;19;20013;-59
2022/11/19 00:56:04;;;;;;;0.65;0.20;;;;;;;18.15;100.00;99275.91;7393129;19;20460;-58
2022/11/19 00:58:30;;;;;;;0.20;0.20;;;;;;;18.16;100.00;99281.03;7393122;19;20027;-58
2022/11/19 01:00:56;;;;;;;0.90;0.32;;;;;;;17.73;100.00;99277.72;7393445;19;20007;-58
2022/11/19 01:03:23;;;;;;;1.38;0.28;;;;;;;17.28;100.00;99282.56;7392022;19;20047;-58
2022/11/19 01:05:50;;;;;;;0.55;0.30;;;;;;;17.27;100.00;99290.22;7390876;19;20031;-58
2022/11/19 01:08:17;;;;;;;0.40;0.20;;;;;;;16.82;100.00;99280.94;7395121;19;20015;-58
2022/11/19 01:10:43;;;;;;;0.20;0.20;;;;;;;16.84;100.00;99280.38;7390755;19;20340;-60
2022/11/19 01:15:54;;;;;;;0.10;0.10;;;;;;;16.36;100.00;99284.81;7395773;19;20574;-59
2022/11/19 01:18:21;;;;;;;1.80;1.23;;;;;;;16.50;100.00;99283.63;7391670;19;20033;-58
2022/11/19 01:20:47;;;;;;;0.28;0.22;;;;;;;16.75;100.00;99283.56;7393925;19;20006;-59
2022/11/19 01:23:13;;;;;;;0.52;0.40;;;;;;;17.00;100.00;99290.66;7391321;19;20070;-58
2022/11/19 01:25:40;;;;;;;0.10;0.10;;;;;;;16.93;100.00;99280.00;7390290;19;20021;-59
2022/11/19 01:28:06;;;;;;;9.93;0.52;;;;;;;16.66;100.00;99287.53;7390803;19;20011;-58
2022/11/19 01:30:33;;;;;;;1.75;0.10;;;;;;;16.93;100.00;99294.06;7392078;19;20011;-58
2022/11/19 01:32:59;;;;;;;0.20;0.20;;;;;;;17.03;100.00;99298.00;7389680;19;20019;-58
2022/11/19 01:35:25;;;;;;;0.20;0.20;;;;;;;17.33;100.00;99301.38;7391677;19;20381;-58
2022/11/19 01:37:51;;;;;;;0.63;0.20;;;;;;;17.32;100.00;99302.69;7389395;19;20015;-59
2022/11/19 01:40:18;;;;;;;0.15;0.13;;;;;;;17.38;100.00;99301.31;7390056;19;20011;-59
2022/11/19 01:42:49;;;;;;;0.75;0.63;;;;;;;17.17;100.00;99303.16;7391433;19;20092;-59
2022/11/19 01:45:47;;;;;;;0.60;0.20;;;;;;;16.99;100.00;99300.38;7391114;19;20500;-58
2022/11/19 01:48:29;;;;;;;0.10;0.08;;;;;;;16.97;100.00;99297.34;7391284;19;20011;-59
2022/11/19 01:50:58;;;;;;;7.13;0.38;;;;;;;16.82;100.00;99308.28;7393906;19;20011;-59
2022/11/19 01:53:29;;;;;;;0.10;0.10;;;;;;;16.61;100.00;99305.97;7390072;19;20014;-59
2022/11/19 01:56:02;;;;;;;2.53;0.60;;;;;;;16.80;100.00;99305.25;7390739;19;20030;-59
2022/11/19 01:58:32;;;;;;;0.55;0.40;;;;;;;16.81;100.00;99318.00;7390752;19;20078;-58
2022/11/19 02:00:59;;;;;;;0.68;0.57;;;;;;;16.84;100.00;99323.34;7391666;19;20006;-58
2022/11/19 02:03:30;;;;;;;0.28;0.28;;;;;;;16.92;100.00;99320.66;7390480;19;20352;-58
2022/11/19 02:05:57;;;;;;;;;;;;;;;17.18;100.00;99320.81;7391246;19;20021;-58
2022/11/19 02:08:52;;;;;;;0.20;0.20;;;;;;;17.17;100.00;99325.66;7392504;19;19925;-58
2022/11/19 02:11:45;;;;;;;1.50;0.70;;;;;;;17.35;100.00;99338.22;7389093;19;20014;-59
2022/11/19 02:14:18;;;;;;;0.20;0.20;;;;;;;17.43;100.00;99330.69;7388145;19;20046;-59
2022/11/19 02:17:22;;;;;;;1.95;0.38;;;;;;;17.52;100.00;99330.28;7386765;19;20034;-58
2022/11/19 02:20:07;;;;;;;;;;;;;;;17.44;100.00;99335.00;7386292;19;20019;-59
2022/11/19 02:23:00;;;;;;;0.20;0.15;;;;;;;17.59;100.00;99332.47;7392883;19;19923;-58
2022/11/19 02:25:57;;;;;;;1.75;0.50;;;;;;;17.62;100.00;99337.06;7388148;19;20032;-58
2022/11/19 02:28:36;;;;;;;10.15;0.85;;;;;;;17.55;100.00;99334.84;7387255;19;20019;-58
2022/11/19 02:31:02;;;;;;;0.77;0.20;;;;;;;17.68;100.00;99331.31;7387545;19;20078;-58
2022/11/19 02:33:36;;;;;;;0.10;0.10;;;;;;;17.59;100.00;99335.31;7387252;19;20018;-58
2022/11/19 02:36:23;;;;;;;0.43;0.43;;;;;;;17.74;100.00;99340.44;7388047;19;20455;-58
2022/11/19 02:38:52;;;;;;;0.10;0.10;;;;;;;17.91;100.00;99329.66;7387495;19;20022;-58
2022/11/19 02:41:37;;;;;;;0.17;0.17;;;;;;;17.95;100.00;99330.84;7389654;19;20023;-58
2022/11/19 02:47:14;;;;;;;0.25;0.25;;;;;;;17.58;100.00;99328.16;7385924;19;20010;-58
2022/11/19 02:49:43;;;;;;;0.20;0.20;;;;;;;17.98;100.00;99332.59;7391079;19;20023;-58
2022/11/19 02:52:14;;;;;;;1.38;0.50;;;;;;;18.25;100.00;99338.25;7391782;19;20014;-58
2022/11/19 02:54:40;;;;;;;0.25;0.25;;;;;;;18.18;100.00;99339.66;7388978;19;20011;-58
2022/11/19 02:57:09;;;;;;;0.40;0.22;;;;;;;18.25;100.00;99338.25;7389065;19;20007;-58
2022/11/19 03:05:30;;;;;;;3.60;0.45;;;;;;;17.50;100.00;99338.50;7385937;19;20011;-58
2022/11/19 03:07:57;;;;;;;0.93;0.55;;;;;;;18.47;100.00;99329.41;7389154;19;20626;-58
2022/11/19 03:10:30;;;;;;;0.75;0.63;;;;;;;18.54;100.00;99337.19;7388602;19;20015;-58
2022/11/19 03:18:58;;;;;;;6.72;1.70;;;;;;;18.79;98.66;99335.69;7389039;19;20018;-58
2022/11/19 03:21:45;;;;;;;0.10;0.10;;;;;;;18.78;98.11;99339.78;7390169;19;20010;-58
2022/11/19 03:24:29;;;;;;;0.10;0.10;;;;;;;18.54;99.62;99345.66;7387748;19;20019;-58
2022/11/19 03:27:14;;;;;;;1.38;0.93;;;;;;;18.66;99.01;99344.16;7385477;19;20014;-58
2022/11/19 03:29:45;;;;;;;0.10;0.10;;;;;;;18.76;98.58;99348.03;7391874;19;20398;-58
2022/11/19 03:32:18;;;;;;;0.10;0.00;;;;;;;18.45;99.07;99351.75;7399478;19;20391;-58
2022/11/19 03:34:49;;;;;;;3.88;0.22;;;;;;;17.97;100.00;99362.09;7395452;19;20463;-58
2022/11/19 03:37:18;;;;;;;0.10;0.10;;;;;;;17.44;100.00;99365.97;7395634;19;20011;-58
2022/11/19 03:39:46;;;;;;;0.10;0.10;;;;;;;17.20;100.00;99360.44;7394478;19;20006;-58
2022/11/19 03:42:16;;;;;;;0.30;0.30;;;;;;;17.00;100.00;99358.91;7398735;19;20023;-58
2022/11/19 03:44:47;;;;;;;0.52;0.20;;;;;;;16.93;100.00;99358.78;7395869;19;20018;-58
2022/11/19 03:47:23;;;;;;;0.10;0.10;;;;;;;15.75;100.00;99360.50;7393458;19;20074;-58
2022/11/19 03:49:57;;;;;;;0.10;0.10;;;;;;;16.59;100.00;99361.97;7396549;19;20015;-58
2022/11/19 03:52:23;;;;;;;0.10;0.10;;;;;;;17.42;100.00;99360.13;7397121;19;20014;-58
2022/11/19 03:54:49;;;;;;;1.15;0.77;;;;;;;17.52;100.00;99364.06;7395087;19;20038;-58
2022/11/19 03:57:19;;;;;;;11.88;0.32;;;;;;;17.63;100.00;99363.91;7393278;19;20108;-57
2022/11/19 03:59:46;;;;;;;0.10;0.00;;;;;;;17.44;100.00;99374.41;7395249;19;20045;-58
2022/11/19 04:02:13;;;;;;;3.30;1.08;;;;;;;17.37;100.00;99375.03;7398500;19;20022;-58
2022/11/19 04:04:39;;;;;;;0.10;0.10;;;;;;;17.20;100.00;99380.13;7395217;19;20046;-58
2022/11/19 04:07:10;;;;;;;0.10;0.10;;;;;;;16.87;100.00;99372.88;7394090;19;20460;-58
2022/11/19 04:09:37;;;;;;;25.17;0.90;;;;;;;16.35;100.00;99367.59;7394106;19;20029;-58
2022/11/19 04:12:05;;;;;;;0.10;0.00;;;;;;;15.66;100.00;99377.66;7397602;19;20231;-59
2022/11/19 04:14:31;;;;;;;1.40;0.35;;;;;;;15.53;100.00;99371.91;7392500;19;20114;-58
2022/11/19 04:16:57;;;;;;;0.10;0.10;;;;;;;14.75;100.00;99394.72;7392915;19;20031;-58
2022/11/19 04:19:24;;;;;;;0.10;0.10;;;;;;;17.73;100.00;99384.75;7395801;19;20007;-58
2022/11/19 04:21:50;;;;;;;0.17;0.17;;;;;;;18.31;100.00;99381.19;7396658;19;20038;-58
2022/11/19 04:24:16;;;;;;;1.48;0.15;;;;;;;18.59;100.00;99385.06;7394354;19;20010;-58
2022/11/19 04:26:43;;;;;;;0.30;0.30;;;;;;;18.86;100.00;99397.84;7390690;19;20506;-58
2022/11/19 04:29:09;;;;;;;0.73;0.40;;;;;;;18.94;100.00;99392.31;7394221;19;20455;-58
2022/11/19 04:31:35;;;;;;;0.10;0.10;;;;;;;19.04;100.00;99392.59;7395000;19;20479;-58
2022/11/19 04:34:02;;;;;;;0.20;0.20;;;;;;;18.74;100.00;99396.53;7393181;19;20010;-58
2022/11/19 04:36:28;;;;;;;0.10;0.10;;;;;;;18.60;100.00;99411.19;7393559;19;20443;-58
2022/11/19 04:38:54;;;;;;;1.95;0.10;;;;;;;18.72;100.00;99404.78;7392528;19;20404;-58
2022/11/19 04:41:20;;;;;;;0.30;0.10;;;;;;;18.82;100.00;99405.09;7393804;19;20019;-58
2022/11/19 04:43:46;;;;;;;5.50;0.43;;;;;;;18.61;100.00;99401.41;7392421;19;20357;-58
2022/11/19 04:46:12;;;;;;;0.20;0.10;;;;;;;17.82;100.00;99404.06;7392149;19;20010;-58
2022/11/19 04:48:38;;;;;;;1.17;0.30;;;;;;;18.72;100.00;99404.03;7393695;19;20021;-58
2022/11/19 04:51:05;;;;;;;0.20;0.20;;;;;;;18.95;100.00;99402.28;7396337;19;20023;-58
2022/11/19 04:53:31;;;;;;;0.10;0.10;;;;;;;18.98;100.00;99395.56;7392423;19;20010;-58
2022/11/19 04:55:57;;;;;;;0.10;0.00;;;;;;;18.89;100.00;99398.81;7393087;19;20014;-58
2022/11/19 04:58:23;;;;;;;0.60;0.30;;;;;;;18.83;100.00;99398.16;7392623;19;20664;-58
2022/11/19 05:00:49;;;;;;;0.30;0.20;;;;;;;18.74;100.00;99398.59;7393463;19;20015;-58
2022/11/19 05:03:15;;;;;;;1.20;0.25;;;;;;;18.81;100.00;99395.13;7393162;19;20410;-58
2022/11/19 05:05:41;;;;;;;0.10;0.10;;;;;;;18.79;100.00;99409.03;7392701;19;20023;-58
2022/11/19 05:08:07;;;;;;;0.10;0.10;;;;;;;18.90;100.00;99408.81;7393827;19;20345;-58
2022/11/19 05:10:33;;;;;;;4.00;0.68;;;;;;;18.90;100.00;99411.63;7390945;19;19999;-58
2022/11/19 05:13:00;;;;;;;0.38;0.20;;;;;;;18.68;100.00;99426.16;7391848;19;20070;-58
2022/11/19 05:15:26;;;;;;;0.55;0.00;;;;;;;18.60;100.00;99420.41;7396306;19;20360;-58
2022/11/19 05:17:52;;;;;;;2.05;0.75;;;;;;;18.66;100.00;99428.78;7392616;19;20470;-57
2022/11/19 05:20:18;;;;;;;0.55;0.55;;;;;;;18.52;100.00;99442.09;7394802;19;20078;-58
2022/11/19 05:22:44;;;;;;;0.22;0.22;;;;;;;18.72;100.00;99432.25;7392745;19;20018;-58
2022/11/19 05:25:10;;;;;;;8.82;0.80;;;;;;;18.82;100.00;99430.50;7391830;19;20014;-58
2022/11/19 05:27:36;;;;;;;0.10;0.10;;;;;;;18.70;100.00;99426.38;7388315;19;20014;-58
2022/11/19 05:30:03;;;;;;;0.20;0.10;;;;;;;18.74;100.00;99429.63;7390310;19;20010;-58
2022/11/19 05:32:29;;;;;;;0.38;0.13;;;;;;;18.71;100.00;99428.66;7395405;19;20479;-58
2022/11/19 05:34:55;;;;;;;0.10;0.10;;;;;;;18.63;100.00;99433.44;7392073;19;20015;-58
2022/11/19 05:37:21;;;;;;;1.50;0.20;;;;;;;18.63;100.00;99430.59;7392095;19;20007;-58
2022/11/19 05:39:47;;;;;;;0.35;0.25;;;;;;;18.52;100.00;99442.09;7391607;19;20594;-58
2022/11/19 05:42:14;;;;;;;1.00;0.08;;;;;;;18.45;100.00;99442.72;7393509;19;20014;-58
2022/11/19 05:44:40;;;;;;;1.17;0.17;;;;;;;18.48;100.00;99435.25;7389898;19;20010;-58
2022/11/19 05:47:06;;;;;;;0.10;0.10;;;;;;;18.49;100.00;99450.88;7388402;19;20383;-58
2022/11/19 05:49:32;;;;;;;0.10;0.10;;;;;;;18.41;100.00;99459.19;7391953;19;20013;-58
2022/11/19 05:51:58;;;;;;;0.10;0.08;;;;;;;18.46;100.00;99455.53;7392506;19;20499;-58
2022/11/19 05:54:24;;;;;;;0.40;0.40;;;;;;;18.64;100.00;99451.88;7390256;19;20014;-58
2022/11/19 05:56:50;;;;;;;0.15;0.15;;;;;;;18.68;100.00;99457.19;7390190;19;20424;-58
2022/11/19 05:59:16;;;;;;;0.10;0.10;;;;;;;18.72;100.00;99454.81;7390507;19;20015;-58
2022/11/19 06:01:42;;;;;;;0.10;0.10;;;;;;;18.95;100.00;99455.88;7393747;19;20015;-58
2022/11/19 06:04:09;;;;;;;0.30;0.20;;;;;;;18.83;100.00;99452.53;7389781;19;20027;-58
2022/11/19 06:06:36;;;;;;;0.52;0.10;;;;;;;18.88;100.00;99451.66;7389922;19;20598;-58
2022/11/19 06:09:03;;;;;;;0.10;0.08;;;;;;;18.80;100.00;99455.69;7389695;19;20021;-58
2022/11/19 06:11:47;;;;;;;2.65;0.57;;;;;;;18.82;100.00;99455.88;7392164;19;20022;-58
2022/11/19 06:14:14;;;;;;;4.53;0.20;;;;;;;18.88;100.00;99450.91;7389074;19;20090;-58
2022/11/19 06:16:40;;;;;;;0.57;0.20;;;;;;;18.75;100.00;99453.75;7388523;19;20495;-58
2022/11/19 06:19:06;;;;;;;0.82;0.30;;;;;;;18.76;100.00;99449.59;7391304;19;20027;-58
2022/11/19 06:21:32;;;;;;;0.70;0.45;;;;;;;18.81;100.00;99457.22;7390647;19;20014;-58
2022/11/19 06:23:58;;;;;;;0.10;0.10;;;;;;;18.79;100.00;99454.16;7389873;19;20038;-58
2022/11/19 06:26:26;;;;;;;0.10;0.08;;;;;;;18.77;100.00;99451.91;7388013;19;20018;-58
2022/11/19 06:28:53;;;;;;;0.73;0.15;;;;;;;18.80;100.00;99455.69;7389760;19;20798;-58
2022/11/19 06:31:20;;;;;;;0.10;0.10;;;;;;;18.92;100.00;99462.63;7392096;19;21363;-58
2022/11/19 06:33:47;;;;;;;0.15;0.15;;;;;;;18.86;100.00;99462.00;7389878;19;20121;-58
2022/11/19 06:36:13;;;;;;;0.13;0.13;;;;;;;18.76;100.00;99466.53;7389171;19;20464;-58
2022/11/19 06:38:40;;;;;;;0.10;0.00;;;;;;;18.74;100.00;99463.50;7389403;19;20035;-58
2022/11/19 06:41:07;;;;;;;1.00;0.43;;;;;;;18.70;100.00;99463.06;7390722;19;20793;-58
2022/11/19 06:43:33;;;;;;;0.17;0.10;;;;;;;18.73;100.00;99464.81;7389573;19;20021;-58
2022/11/19 06:45:59;;;;;;;0.32;0.30;;;;;;;18.77;100.00;99457.53;7387528;19;20014;-58
2022/11/19 06:48:25;;;;;;;5.38;0.65;;;;;;;18.77;100.00;99457.53;7389526;19;20463;-58
2022/11/19 06:50:51;;;;;;;0.10;0.10;;;;;;;18.80;100.00;99458.50;7391702;19;20021;-58
2022/11/19 06:53:17;;;;;;;0.08;0.00;;;;;;;18.80;100.00;99455.69;7389519;19;20027;-58
2022/11/19 06:55:43;;;;;;;6.93;0.50;;;;;;;18.71;99.97;99464.59;7389649;19;20368;-58
2022/11/19 06:58:09;;;;;;;0.30;0.30;;;;;;;18.70;100.00;99451.78;7388839;19;20750;-58
2022/11/19 07:00:36;;;;;;;0.75;0.52;;;;;;;18.64;99.79;99459.59;7390222;19;20014;-58
2022/11/19 07:03:02;;;;;;;0.10;0.10;;;;;;;18.52;99.42;99455.44;7387729;19;20007;-58
2022/11/19 07:05:28;;;;;;;22.27;0.65;;;;;;;18.38;99.45;99456.69;7396035;19;20010;-58
2022/11/19 07:07:54;;;;;;;0.88;0.32;;;;;;;18.47;98.68;99465.53;7396879;19;20070;-58
2022/11/19 07:10:20;;;;;;;3.63;0.30;;;;;;;18.37;98.99;99466.44;7397202;19;20073;-58
2022/11/19 07:12:46;;;;;;;9.10;0.40;;;;;;;18.22;99.65;99469.00;7395773;19;20018;-58
2022/11/19 07:15:12;;;;;;;1.55;0.20;;;;;;;18.38;98.68;99465.16;7395647;19;20097;-58
2022/11/19 07:17:39;;;;;;;1.85;0.35;;;;;;;18.05;98.76;99467.22;7396182;19;20347;-58
2022/11/19 07:20:05;;;;;;;3.83;0.50;;;;;;;18.29;97.38;99471.19;7397566;19;20103;-58
2022/11/19 07:22:31;;;;;;;1.27;1.17;;;;;;;18.03;97.08;99471.88;7398588;19;20043;-58
2022/11/19 07:24:58;;;;;;;0.10;0.10;;;;;;;17.72;97.75;99479.00;7395267;19;20002;-58
2022/11/19 07:27:24;;;;;;;0.20;0.20;;;;;;;17.53;98.54;99475.41;7392670;19;20011;-58
2022/11/19 07:29:50;;;;;;;0.52;0.52;;;;;;;17.37;98.59;99484.81;7395588;19;20039;-58
2022/11/19 07:32:16;;;;;;;0.80;0.20;;;;;;;17.34;99.32;99489.47;7399719;19;20019;-58
2022/11/19 07:34:42;;;;;;;0.63;0.63;;;;;;;17.22;100.00;99481.66;7395057;19;20332;-58
2022/11/19 07:37:08;;;;;;;1.45;0.57;;;;;;;17.23;100.00;99486.03;7394650;19;20015;-58
2022/11/19 07:39:34;;;;;;;0.43;0.40;;;;;;;17.19;100.00;99494.00;7394484;19;20332;-58
2022/11/19 07:44:51;;;;;;;0.10;0.10;;;;;;;17.37;100.00;99487.63;7393774;19;20018;-58
2022/11/19 07:47:17;;;;;;;9.52;0.70;;;;;;;17.34;100.00;99485.88;7393505;19;20755;-58
2022/11/19 07:49:43;;;;;;;0.57;0.22;;;;;;;17.40;99.85;99489.38;7397158;19;20107;-58
2022/11/19 07:52:10;;;;;;;9.43;0.68;;;;;;;17.52;98.95;99487.97;7398677;19;20661;-58
2022/11/19 07:54:36;;;;;;;0.10;0.00;;;;;;;17.27;98.93;99498.50;7393955;19;20007;-58
2022/11/19 07:57:02;;;;;;;1.45;0.63;;;;;;;17.18;99.20;99496.06;7394445;19;20021;-58
2022/11/19 07:59:28;;;;;;;1.92;0.30;;;;;;;17.28;98.02;99507.72;7394451;19;20343;-58
2022/11/19 08:01:54;;;;;;;1.27;0.20;;;;;;;17.14;98.81;99508.88;7397182;19;20014;-58
2022/11/19 08:04:20;;;;;;;0.22;0.22;;;;;;;17.33;97.54;99510.44;7394839;19;20018;-58
2022/11/19 08:06:46;;;;;;;0.43;0.22;;;;;;;16.87;100.00;99507.91;7393326;19;20040;-58
2022/11/19 08:09:12;;;;;;;0.90;0.85;;;;;;;17.24;98.32;99504.41;7393345;19;20475;-58
2022/11/19 08:11:39;;;;;;;2.08;0.47;;;;;;;17.17;98.14;99513.47;7395789;19;20011;-58
2022/11/19 08:14:05;;;;;;;0.68;0.40;;;;;;;17.25;97.92;99512.34;7394111;19;20369;-58
2022/11/19 08:19:17;;;;;;;0.20;0.17;;;;;;;17.39;96.61;99508.31;7394844;19;20507;-58
2022/11/19 08:21:45;;;;;;;3.80;1.20;;;;;;;17.35;97.07;99513.50;7395908;19;20007;-58
2022/11/19 08:24:12;;;;;;;0.20;0.20;;;;;;;17.46;96.16;99515.41;7393205;19;20475;-58
2022/11/19 08:26:39;;;;;;;3.00;0.93;;;;;;;17.35;97.28;99515.53;7392558;19;20015;-58
2022/11/19 08:29:05;;;;;;;1.63;0.88;;;;;;;17.35;97.58;99518.34;7393450;19;20329;-58
2022/11/19 08:31:32;;;;;;;1.13;0.68;;;;;;;17.25;97.75;99520.03;7394341;19;20102;-58
2022/11/19 08:34:00;;;;;;;0.43;0.32;;;;;;;17.02;97.50;99522.31;7393039;19;20042;-58
2022/11/19 08:36:26;;;;;;;2.03;0.50;;;;;;;17.17;97.78;99530.34;7393345;19;20011;-58
2022/11/19 08:38:57;;;;;;;5.00;1.00;;;;;;;17.32;96.71;99541.94;7392801;19;20011;-58
2022/11/19 08:44:08;;;;;;;6.07;1.08;;;;;;;17.52;98.88;99549.91;7394062;19;20331;-58
2022/11/19 08:46:35;;;;;;;2.33;0.90;;;;;;;17.64;99.24;99550.53;7391821;19;20444;-58
2022/11/19 08:49:02;;;;;;;0.20;0.20;;;;;;;17.77;98.89;99554.22;7393107;19;20495;-58
2022/11/19 08:51:28;;;;;;;0.77;0.50;;;;;;;17.87;99.20;99552.53;7395092;19;20094;-58
2022/11/19 08:53:54;;;;;;;1.55;0.82;;;;;;;17.88;100.00;99553.28;7391536;19;20511;-58
2022/11/19 08:56:20;;;;;;;1.20;0.52;;;;;;;18.02;100.00;99540.78;7392006;19;20029;-58
2022/11/19 08:58:47;;;;;;;5.38;0.50;;;;;;;18.09;100.00;99551.44;7393022;19;20028;-58
2022/11/19 09:01:16;;;;;;;5.82;0.63;;;;;;;18.33;100.00;99547.75;7394434;19;20014;-58
2022/11/19 09:03:42;;;;;;;3.03;1.25;;;;;;;17.80;100.00;99544.69;7392418;19;20088;-58
2022/11/19 09:06:08;;;;;;;1.10;0.45;;;;;;;18.41;100.00;99548.66;7391231;19;20380;-58
2022/11/19 09:08:35;;;;;;;0.45;0.20;;;;;;;18.51;100.00;99552.63;7396553;19;20533;-58
2022/11/19 09:11:10;;;;;;;2.17;0.82;;;;;;;18.63;100.00;99543.44;7393776;19;20020;-59
2022/11/19 09:13:37;;;;;;;3.80;1.20;;;;;;;16.88;100.00;99553.66;7392377;19;20024;-58
2022/11/19 09:16:04;;;;;;;6.97;0.70;;;;;;;18.46;100.00;99551.41;7392040;19;20033;-59
2022/11/19 09:18:31;;;;;;;3.05;0.73;;;;;;;18.79;100.00;99547.28;7392516;19;20021;-58
2022/11/19 09:20:58;;;;;;;4.85;0.95;;;;;;;18.19;100.00;99547.69;7395742;19;20036;-58
2022/11/19 09:23:26;;;;;;;0.88;0.30;;;;;;;18.95;100.00;99551.84;7392086;19;20027;-58
2022/11/19 09:26:15;;;;;;;2.55;0.47;;;;;;;18.79;100.00;99555.75;7390306;19;20017;-58
2022/11/19 09:28:42;;;;;;;1.40;0.65;;;;;;;18.45;100.00;99554.78;7391265;19;20029;-58
2022/11/19 09:31:10;;;;;;;0.60;0.52;;;;;;;18.57;100.00;99567.41;7393097;19;20502;-58
2022/11/19 09:33:40;;;;;;;7.35;1.70;;;;;;;18.72;100.00;99567.66;7392049;19;20029;-58
2022/11/19 09:36:08;;;;;;;8.45;2.33;;;;;;;18.80;100.00;99574.19;7392066;19;20023;-58
2022/11/19 09:38:34;;;;;;;5.00;1.63;;;;;;;18.67;100.00;99574.13;7391008;19;20014;-58
2022/11/19 09:41:42;;;;;;;0.90;0.60;;;;;;;19.20;98.44;99584.25;7392828;19;20022;-58
2022/11/19 09:44:13;;;;;;;5.90;1.30;;;;;;;19.12;98.11;99583.38;7390197;19;20361;-58
2022/11/19 09:46:51;;;;;;;2.20;1.13;;;;;;;19.00;97.89;99582.03;7389751;19;20016;-58
2022/11/19 09:49:42;;;;;;;1.45;0.52;;;;;;;19.04;97.86;99574.00;7392256;19;20022;-58
2022/11/19 09:52:14;;;;;;;3.30;0.63;;;;;;;18.90;98.92;99578.88;7393151;19;20016;-58
2022/11/19 09:54:47;;;;;;;1.20;0.55;;;;;;;18.71;99.42;99575.34;7391322;19;20015;-58
2022/11/19 09:57:22;;;;;;;0.88;0.85;;;;;;;18.94;98.94;99572.91;7389736;19;20018;-58
2022/11/19 09:59:54;;;;;;;7.53;1.23;;;;;;;19.09;98.21;99578.03;7389554;19;20769;-58
2022/11/19 10:02:21;;;;;;;0.73;0.28;;;;;;;18.96;100.00;99580.84;7394985;19;20456;-58
2022/11/19 10:04:51;;;;;;;1.90;1.75;;;;;;;19.07;100.00;99581.41;7390702;19;20011;-58
2022/11/19 10:07:48;;;;;;;3.45;1.08;;;;;;;17.19;100.00;99584.06;7391366;19;20015;-58
2022/11/19 10:10:33;;;;;;;5.28;0.68;;;;;;;18.73;100.00;99589.69;7390532;19;20103;-58
2022/11/19 10:13:11;;;;;;;2.45;1.15;;;;;;;17.80;100.00;99591.81;7390648;19;20010;-58
2022/11/19 10:16:00;;;;;;;0.38;0.15;;;;;;;17.56;100.00;99595.44;7388797;19;20085;-58
2022/11/19 10:18:51;;;;;;;2.92;0.73;;;;;;;16.85;100.00;99594.84;7390088;19;20070;-58
2022/11/19 10:21:26;;;;;;;2.17;0.80;;;;;;;18.94;100.00;99595.50;7390784;19;20018;-58
2022/11/19 10:24:07;;;;;;;1.20;1.10;;;;;;;19.56;98.21;99607.19;7390617;19;20035;-59
2022/11/19 10:26:39;;;;;;;6.57;1.05;;;;;;;19.19;100.00;99608.13;7389280;19;20007;-58
2022/11/19 10:29:19;;;;;;;0.60;0.60;;;;;;;19.55;98.38;99603.63;7389866;19;20018;-58
2022/11/19 10:31:47;;;;;;;4.45;1.15;;;;;;;19.64;99.00;99605.25;7393161;19;20014;-59
2022/11/19 10:34:28;;;;;;;1.15;0.73;;;;;;;20.04;97.01;99608.75;7389712;19;20018;-58
2022/11/19 10:37:10;;;;;;;0.37;0.30;;;;;;;19.85;97.06;99596.84;7390040;19;20010;-59
2022/11/19 10:39:42;;;;;;;0.25;0.25;;;;;;;19.58;97.37;99599.69;7387811;19;20018;-58
2022/11/19 10:42:20;;;;;;;2.42;0.77;;;;;;;18.52;100.00;99605.66;7392966;19;20014;-58
2022/11/19 10:44:57;;;;;;;3.63;1.25;;;;;;;18.97;100.00;99594.44;7389960;19;20467;-58
2022/11/19 10:47:46;;;;;;;0.90;0.77;;;;;;;19.11;100.00;99595.94;7387794;19;20024;-58
2022/11/19 10:50:20;;;;;;;0.98;0.32;;;;;;;19.12;100.00;99591.84;7389550;19;20575;-59
2022/11/19 10:53:21;;;;;;;3.75;1.60;;;;;;;19.63;99.19;99586.75;7387414;19;20038;-58
2022/11/19 10:55:51;;;;;;;1.08;0.50;;;;;;;19.79;97.71;99582.06;7387078;19;20022;-58
2022/11/19 10:58:41;;;;;;;3.13;0.75;;;;;;;18.88;100.00;99587.09;7387994;19;20009;-59
2022/11/19 11:01:46;;;;;;;2.50;1.00;;;;;;;19.24;100.00;99584.69;7391097;19;20011;-58
2022/11/19 11:04:14;;;;;;;0.35;0.32;;;;;;;18.78;100.00;99569.06;7384690;19;20440;-59
2022/11/19 11:06:58;;;;;;;0.57;0.38;;;;;;;19.12;100.00;99580.56;7388522;19;20080;-59
2022/11/19 11:09:34;;;;;;;2.20;1.05;;;;;;;19.26;100.00;99572.84;7388835;19;20010;-59
2022/11/19 11:14:59;;;;;;;4.80;0.40;;;;;;;18.81;100.00;99567.25;7389103;19;20014;-59
2022/11/19 11:17:29;;;;;;;3.42;0.80;;;;;;;19.76;100.00;99569.03;7388958;19;20011;-59
2022/11/19 11:20:03;;;;;;;7.55;1.08;;;;;;;20.05;99.55;99570.72;7390926;19;20014;-59
2022/11/19 11:22:30;;;;;;;4.45;1.40;;;;;;;19.93;100.00;99563.78;7392816;19;20025;-59
2022/11/19 11:24:58;;;;;;;7.88;1.65;;;;;;;20.11;98.26;99554.38;7389131;19;20011;-59
2022/11/19 11:27:32;;;;;;;0.40;0.25;;;;;;;20.31;96.98;99553.69;7385836;19;20025;-59
2022/11/19 11:30:10;;;;;;;5.75;1.33;;;;;;;20.16;97.48;99559.16;7388464;19;20034;-58
2022/11/19 11:32:38;;;;;;;0.98;0.88;;;;;;;19.93;96.70;99552.47;7392291;19;20022;-59
2022/11/19 11:35:05;;;;;;;4.57;2.30;;;;;;;19.89;97.74;99546.38;7386648;19;20488;-59
2022/11/19 11:37:32;;;;;;;6.07;1.15;;;;;;;19.83;98.45;99540.09;7387841;19;20037;-59
2022/11/19 11:39:59;;;;;;;4.32;0.82;;;;;;;20.16;96.99;99536.53;7387449;19;20372;-59
2022/11/19 11:42:27;;;;;;;6.28;1.58;;;;;;;20.11;96.99;99534.59;7391748;19;20034;-59
2022/11/19 11:44:57;;;;;;;2.17;0.82;;;;;;;20.26;96.62;99524.22;7388096;19;20018;-59
2022/11/19 11:47:28;;;;;;;2.03;0.55;;;;;;;20.42;95.38;99522.31;7386404;19;20364;-59
2022/11/19 11:50:16;;;;;;;8.27;0.82;;;;;;;20.65;93.35;99523.25;7389701;19;20015;-59
2022/11/19 11:52:47;;;;;;;0.70;0.50;;;;;;;20.72;93.29;99516.16;7394435;19;20039;-59
2022/11/19 11:55:23;;;;;;;2.22;0.88;;;;;;;20.69;92.74;99520.06;7395502;19;20015;-59
2022/11/19 11:57:50;;;;;;;1.15;0.50;;;;;;;20.85;91.72;99519.66;7394521;19;20011;-59
2022/11/19 12:00:34;;;;;;;1.20;0.70;;;;;;;20.78;90.13;99505.44;7393298;19;20023;-59
2022/11/19 12:03:12;;;;;;;4.18;0.50;;;;;;;20.70;90.68;99504.63;7393190;19;20087;-59
2022/11/19 12:05:41;;;;;;;2.72;1.25;;;;;;;20.74;91.36;99511.44;7392328;19;20043;-59
2022/11/19 12:08:19;;;;;;;1.75;1.02;;;;;;;20.64;90.70;99521.72;7393440;19;20014;-59
2022/11/19 12:11:17;;;;;;;3.58;1.05;;;;;;;20.38;91.21;99513.38;7394991;19;20018;-59
2022/11/19 12:13:59;;;;;;;1.05;0.80;;;;;;;20.35;91.68;99512.44;7393952;19;20018;-59
2022/11/19 12:16:53;;;;;;;2.20;1.25;;;;;;;20.32;91.42;99509.94;7394547;19;20044;-59